createdAt,value
2024-02-08T00:01:23.370Z,23.38
2024-02-08T00:04:11.138Z,22.79
2024-02-08T00:06:58.831Z,23.10
2024-02-08T00:09:46.607Z,23.14
2024-02-08T00:12:34.256Z,22.94
2024-02-08T00:15:21.977Z,23.04
2024-02-08T00:18:09.918Z,22.75
2024-02-08T00:20:57.654Z,22.96
2024-02-08T00:23:45.344Z,22.90
2024-02-08T00:26:33.070Z,23.33
2024-02-08T00:29:20.777Z,23.01
2024-02-08T00:32:09.234Z,23.71
2024-02-08T00:34:57.180Z,23.45
2024-02-08T00:37:51.279Z,23.02
2024-02-08T00:40:39.584Z,23.43
2024-02-08T00:43:27.258Z,23.38
2024-02-08T00:46:14.877Z,23.27
2024-02-08T00:49:02.614Z,23.19
2024-02-08T00:51:50.452Z,23.47
2024-02-08T00:54:38.228Z,23.55
2024-02-08T00:57:25.918Z,23.07
2024-02-08T01:00:14.085Z,22.97
2024-02-08T01:03:01.791Z,23.14
2024-02-08T01:05:52.847Z,23.49
2024-02-08T01:08:40.561Z,22.30
2024-02-08T01:11:28.302Z,23.38
2024-02-08T01:14:16.115Z,22.89
2024-02-08T01:17:06.457Z,23.72
2024-02-08T01:19:54.230Z,23.26
2024-02-08T01:22:43.237Z,23.45
2024-02-08T01:25:31.058Z,22.71
2024-02-08T01:28:18.746Z,23.13
2024-02-08T01:31:06.385Z,22.85
2024-02-08T01:33:53.947Z,23.27
2024-02-08T01:36:41.701Z,23.82
2024-02-08T01:39:29.405Z,23.63
2024-02-08T01:42:17.628Z,23.07
2024-02-08T01:45:26.125Z,24.04
2024-02-08T01:48:17.873Z,23.87
2024-02-08T01:51:06.232Z,23.55
2024-02-08T01:53:53.936Z,23.53
2024-02-08T01:56:45.844Z,23.33
2024-02-08T01:59:33.596Z,24.14
2024-02-08T02:02:23.492Z,23.86
2024-02-08T02:05:18.698Z,23.21
2024-02-08T02:08:07.172Z,23.23
2024-02-08T02:11:12.336Z,23.68
2024-02-08T02:14:00.336Z,23.25
2024-02-08T02:16:52.462Z,23.31
2024-02-08T02:19:41.426Z,23.09
2024-02-08T02:22:33.351Z,23.52
2024-02-08T02:25:20.972Z,23.54
2024-02-08T02:28:11.456Z,23.64
2024-02-08T02:30:59.648Z,23.37
2024-02-08T02:33:48.340Z,23.86
2024-02-08T02:36:36.245Z,23.67
2024-02-08T02:39:27.223Z,23.67
2024-02-08T02:42:15.946Z,23.23
2024-02-08T02:45:03.714Z,23.62
2024-02-08T02:47:54.937Z,23.35
2024-02-08T02:50:43.716Z,23.91
2024-02-08T02:53:31.903Z,24.00
2024-02-08T02:56:21.045Z,24.18
2024-02-08T02:59:08.923Z,23.19
2024-02-08T03:01:57.303Z,23.90
2024-02-08T03:04:45.066Z,23.96
2024-02-08T03:07:33.023Z,24.01
2024-02-08T03:10:22.539Z,23.99
2024-02-08T03:13:11.865Z,24.34
2024-02-08T03:15:59.593Z,23.99
2024-02-08T03:18:50.446Z,24.20
2024-02-08T03:21:41.489Z,24.19
2024-02-08T03:24:37.328Z,24.66
2024-02-08T03:27:25.980Z,24.82
2024-02-08T03:30:20.771Z,24.27
2024-02-08T03:33:17.220Z,23.95
2024-02-08T03:36:08.189Z,24.48
2024-02-08T03:38:56.132Z,24.79
2024-02-08T03:41:43.775Z,23.16
2024-02-08T03:44:31.973Z,24.78
2024-02-08T03:47:20.220Z,24.65
2024-02-08T03:50:08.162Z,24.75
2024-02-08T03:52:55.969Z,24.39
2024-02-08T03:55:45.502Z,24.79
2024-02-08T03:58:33.584Z,25.03
2024-02-08T04:01:22.651Z,24.37
2024-02-08T04:04:14.651Z,24.23
2024-02-08T04:07:23.895Z,24.27
2024-02-08T04:10:20.041Z,24.38
2024-02-08T04:13:26.392Z,24.38
2024-02-08T04:16:32.531Z,23.97
2024-02-08T04:19:39.167Z,24.32
2024-02-08T04:22:45.552Z,24.50
2024-02-08T04:25:51.724Z,23.84
2024-02-08T04:28:58.246Z,24.30
2024-02-08T04:32:07.781Z,24.30
2024-02-08T04:35:14.371Z,24.28
2024-02-08T04:38:20.685Z,24.44
2024-02-08T04:41:27.240Z,24.44
2024-02-08T04:44:33.745Z,24.48
2024-02-08T04:47:40.092Z,24.74
2024-02-08T04:50:46.562Z,24.34
2024-02-08T04:53:46.603Z,24.57
2024-02-08T04:56:34.285Z,24.56
2024-02-08T04:59:23.671Z,24.44
2024-02-08T05:02:12.138Z,23.88
2024-02-08T05:04:59.909Z,24.66
2024-02-08T05:07:50.213Z,24.64
2024-02-08T05:10:38.020Z,24.63
2024-02-08T05:13:27.118Z,24.35
2024-02-08T05:16:17.914Z,24.43
2024-02-08T05:19:05.854Z,23.86
2024-02-08T05:22:00.544Z,24.48
2024-02-08T05:24:48.609Z,24.39
2024-02-08T05:27:36.260Z,24.36
2024-02-08T05:30:24.099Z,24.43
2024-02-08T05:33:16.711Z,24.00
2024-02-08T05:36:08.413Z,24.30
2024-02-08T05:38:58.052Z,24.31
2024-02-08T05:41:46.228Z,24.29
2024-02-08T05:44:34.361Z,24.18
2024-02-08T05:47:27.625Z,24.07
2024-02-08T05:50:25.910Z,24.34
2024-02-08T05:53:17.109Z,24.14
2024-02-08T05:56:09.439Z,24.35
2024-02-08T05:59:02.582Z,23.89
2024-02-08T06:01:51.869Z,24.41
2024-02-08T06:04:42.414Z,24.08
2024-02-08T06:07:32.497Z,24.07
2024-02-08T06:10:24.135Z,23.94
2024-02-08T06:13:16.853Z,24.24
2024-02-08T06:16:16.196Z,24.40
2024-02-08T06:19:04.274Z,24.43
2024-02-08T06:22:09.532Z,23.71
2024-02-08T06:25:10.010Z,24.05
2024-02-08T06:27:59.393Z,23.92
2024-02-08T06:30:49.661Z,23.49
2024-02-08T06:33:56.564Z,23.70
2024-02-08T06:37:00.289Z,23.85
2024-02-08T06:39:57.687Z,24.03
2024-02-08T06:43:05.931Z,23.84
2024-02-08T06:45:54.560Z,23.81
2024-02-08T06:48:42.692Z,23.80
2024-02-08T06:51:49.288Z,23.57
2024-02-08T06:54:55.390Z,23.44
2024-02-08T06:58:02.121Z,23.72
2024-02-08T07:01:08.599Z,23.84
2024-02-08T07:04:14.764Z,23.56
2024-02-08T07:07:21.513Z,23.45
2024-02-08T07:10:27.777Z,23.55
2024-02-08T07:13:34.205Z,23.21
2024-02-08T07:16:40.397Z,23.88
2024-02-08T07:19:46.964Z,23.26
2024-02-08T07:22:53.316Z,23.51
2024-02-08T07:25:59.917Z,23.88
2024-02-08T07:29:06.282Z,23.93
2024-02-08T07:32:12.916Z,24.16
2024-02-08T07:35:20.258Z,23.67
2024-02-08T07:38:09.002Z,23.27
2024-02-08T07:40:56.901Z,23.86
2024-02-08T07:43:51.950Z,23.30
2024-02-08T07:46:41.560Z,23.51
2024-02-08T07:49:46.010Z,23.33
2024-02-08T07:52:47.641Z,23.40
2024-02-08T07:55:35.926Z,23.72
2024-02-08T07:58:28.513Z,23.16
2024-02-08T08:01:19.897Z,23.16
2024-02-08T08:04:10.985Z,23.35
2024-02-08T08:07:02.194Z,23.62
2024-02-08T08:10:08.729Z,23.60
2024-02-08T08:12:56.935Z,23.43
2024-02-08T08:16:10.654Z,23.26
2024-02-08T08:18:59.166Z,22.98
2024-02-08T08:21:59.239Z,23.22
2024-02-08T08:25:10.339Z,22.90
2024-02-08T08:28:31.504Z,23.12
2024-02-08T08:31:52.582Z,23.09
2024-02-08T08:34:59.853Z,22.94
2024-02-08T08:37:47.657Z,23.15
2024-02-08T08:40:42.085Z,22.78
2024-02-08T08:43:33.347Z,22.77
2024-02-08T08:46:22.515Z,22.81
2024-02-08T08:49:15.638Z,22.85
2024-02-08T08:52:05.914Z,22.92
2024-02-08T08:55:13.049Z,22.98
2024-02-08T08:58:05.072Z,23.17
2024-02-08T09:01:15.048Z,22.93
2024-02-08T09:04:24.253Z,23.12
2024-02-08T09:07:13.197Z,22.64
2024-02-08T09:10:05.376Z,22.63
2024-02-08T09:13:08.086Z,22.92
2024-02-08T09:15:57.755Z,22.79
2024-02-08T09:19:01.136Z,22.68
2024-02-08T09:21:51.301Z,22.62
2024-02-08T09:24:43.688Z,22.42
2024-02-08T09:27:35.513Z,22.52
2024-02-08T09:30:39.742Z,22.66
2024-02-08T09:33:54.031Z,22.41
2024-02-08T09:36:44.012Z,22.38
2024-02-08T09:39:51.588Z,22.83
2024-02-08T09:42:39.566Z,22.71
2024-02-08T09:45:34.210Z,22.35
2024-02-08T09:48:38.199Z,22.31
2024-02-08T09:51:26.247Z,22.77
2024-02-08T09:54:17.211Z,22.57
2024-02-08T09:57:24.211Z,22.18
2024-02-08T10:00:32.202Z,22.45
2024-02-08T10:03:33.653Z,22.34
2024-02-08T10:06:26.103Z,22.76
2024-02-08T10:09:33.464Z,22.94
2024-02-08T10:12:32.039Z,22.22
2024-02-08T10:15:27.308Z,22.08
2024-02-08T10:18:24.515Z,22.44
2024-02-08T10:21:18.967Z,22.50
2024-02-08T10:24:25.124Z,22.66
2024-02-08T10:27:22.318Z,22.62
2024-02-08T10:30:10.952Z,22.58
2024-02-08T10:33:00.156Z,22.96
2024-02-08T10:35:49.195Z,22.60
2024-02-08T10:38:56.278Z,22.75
2024-02-08T10:41:58.877Z,22.66
2024-02-08T10:44:47.198Z,22.73
2024-02-08T10:47:42.092Z,23.32
2024-02-08T10:50:32.557Z,22.76
2024-02-08T10:53:41.085Z,22.94
2024-02-08T10:56:42.446Z,22.97
2024-02-08T10:59:53.276Z,23.19
2024-02-08T11:03:01.752Z,23.17
2024-02-08T11:06:02.290Z,22.95
2024-02-08T11:08:52.257Z,22.24
2024-02-08T11:11:42.150Z,22.32
2024-02-08T11:14:30.706Z,22.19
2024-02-08T11:17:23.398Z,22.09
2024-02-08T11:20:18.563Z,21.42
2024-02-08T11:23:10.913Z,21.46
2024-02-08T11:26:07.834Z,22.02
2024-02-08T11:29:06.417Z,22.19
2024-02-08T11:31:57.251Z,22.44
2024-02-08T11:34:47.119Z,22.52
2024-02-08T11:37:39.548Z,22.46
2024-02-08T11:40:30.847Z,22.41
2024-02-08T11:43:21.223Z,22.40
2024-02-08T11:46:19.723Z,22.95
2024-02-08T11:49:16.691Z,22.37
2024-02-08T11:52:08.587Z,22.31
2024-02-08T11:55:15.812Z,22.55
2024-02-08T11:58:11.329Z,22.84
2024-02-08T12:00:59.840Z,22.49
2024-02-08T12:03:51.167Z,22.91
2024-02-08T12:06:47.758Z,22.70
2024-02-08T12:09:39.872Z,22.87
2024-02-08T12:12:27.499Z,23.05
2024-02-08T12:15:17.852Z,23.52
2024-02-08T12:18:07.930Z,22.88
2024-02-08T12:21:03.256Z,23.16
2024-02-08T12:23:54.721Z,22.81
2024-02-08T12:26:43.561Z,22.75
2024-02-08T12:29:31.362Z,22.62
2024-02-08T12:32:19.477Z,22.63
2024-02-08T12:35:15.253Z,22.84
2024-02-08T12:38:04.454Z,22.66
2024-02-08T12:40:52.317Z,22.60
2024-02-08T12:43:44.069Z,22.56
2024-02-08T12:46:32.854Z,22.83
2024-02-08T12:49:20.831Z,22.78
2024-02-08T12:52:11.028Z,22.39
2024-02-08T12:55:01.836Z,22.48
2024-02-08T12:58:04.293Z,22.85
2024-02-08T13:00:57.959Z,22.33
2024-02-08T13:03:45.656Z,22.82
2024-02-08T13:06:33.684Z,22.54
2024-02-08T13:09:28.524Z,22.14
2024-02-08T13:12:18.836Z,22.53
2024-02-08T13:15:11.238Z,22.78
2024-02-08T13:17:59.146Z,22.05
2024-02-08T13:20:48.821Z,22.16
2024-02-08T13:23:38.212Z,22.57
2024-02-08T13:26:33.102Z,22.11
2024-02-08T13:29:27.565Z,21.97
2024-02-08T13:32:17.451Z,22.38
2024-02-08T13:35:05.398Z,21.94
2024-02-08T13:37:55.156Z,22.43
2024-02-08T13:40:48.770Z,22.47
2024-02-08T13:43:40.439Z,22.26
2024-02-08T13:46:31.887Z,22.67
2024-02-08T13:49:23.007Z,22.37
2024-02-08T13:52:11.236Z,22.40
2024-02-08T13:55:00.077Z,22.40
2024-02-08T13:57:54.130Z,22.65
2024-02-08T14:00:43.117Z,22.13
2024-02-08T14:03:31.961Z,22.67
2024-02-08T14:06:27.325Z,22.37
2024-02-08T14:09:22.140Z,22.71
2024-02-08T14:12:09.871Z,22.47
2024-02-08T14:14:59.370Z,22.19
2024-02-08T14:17:55.599Z,22.56
2024-02-08T14:20:53.909Z,22.12
2024-02-08T14:23:50.270Z,22.53
2024-02-08T14:26:44.786Z,22.71
2024-02-08T14:29:36.417Z,22.37
2024-02-08T14:32:28.701Z,22.39
2024-02-08T14:35:23.467Z,22.99
2024-02-08T14:38:11.058Z,22.31
2024-02-08T14:41:01.086Z,22.74
2024-02-08T14:43:54.690Z,22.28
2024-02-08T14:46:43.465Z,22.61
2024-02-08T14:49:31.899Z,22.76
2024-02-08T14:52:26.073Z,22.58
2024-02-08T14:55:22.498Z,22.55
2024-02-08T14:58:31.360Z,22.97
2024-02-08T15:01:39.038Z,22.60
2024-02-08T15:04:27.417Z,22.89
2024-02-08T15:07:33.538Z,22.37
2024-02-08T15:10:43.936Z,22.66
2024-02-08T15:13:47.152Z,22.91
2024-02-08T15:16:35.409Z,22.47
2024-02-08T15:19:27.727Z,22.71
2024-02-08T15:22:28.733Z,22.45
2024-02-08T15:25:19.085Z,22.74
2024-02-08T15:28:26.877Z,22.65
2024-02-08T15:31:37.489Z,22.49
2024-02-08T15:34:44.022Z,22.81
2024-02-08T15:37:43.240Z,22.48
2024-02-08T15:40:32.604Z,22.41
2024-02-08T15:43:20.813Z,22.44
2024-02-08T15:46:12.077Z,22.30
2024-02-08T15:49:01.564Z,22.76
2024-02-08T15:51:51.068Z,22.50
2024-02-08T15:54:39.764Z,22.38
2024-02-08T15:57:31.457Z,22.60
2024-02-08T16:00:37.781Z,22.88
2024-02-08T16:03:27.401Z,22.48
2024-02-08T16:06:33.892Z,22.53
2024-02-08T16:09:28.616Z,22.79
2024-02-08T16:12:20.362Z,22.73
2024-02-08T16:15:18.740Z,22.58
2024-02-08T16:18:23.997Z,23.04
2024-02-08T16:21:17.858Z,23.45
2024-02-08T16:24:14.837Z,23.03
2024-02-08T16:27:08.648Z,22.82
2024-02-08T16:30:09.549Z,22.98
2024-02-08T16:32:57.864Z,23.04
2024-02-08T16:36:00.643Z,23.19
2024-02-08T16:38:59.296Z,23.02
2024-02-08T16:41:49.946Z,22.85
2024-02-08T16:44:52.296Z,22.88
2024-02-08T16:47:53.270Z,23.20
2024-02-08T16:50:47.355Z,23.46
2024-02-08T16:53:35.466Z,23.04
2024-02-08T16:56:23.408Z,22.99
2024-02-08T16:59:16.742Z,23.46
2024-02-08T17:02:13.638Z,22.86
2024-02-08T17:05:11.302Z,22.69
2024-02-08T17:08:05.431Z,23.03
2024-02-08T17:11:02.819Z,22.75
2024-02-08T17:13:53.649Z,23.19
2024-02-08T17:16:47.264Z,23.32
2024-02-08T17:19:35.134Z,23.01
2024-02-08T17:22:41.430Z,23.17
2024-02-08T17:25:42.968Z,23.19
2024-02-08T17:28:37.449Z,23.31
2024-02-08T17:31:35.085Z,23.41
2024-02-08T17:34:24.102Z,23.12
2024-02-08T17:37:18.967Z,22.90
2024-02-08T17:40:18.269Z,22.53
2024-02-08T17:43:10.542Z,23.43
2024-02-08T17:46:04.243Z,23.49
2024-02-08T17:48:55.846Z,22.95
2024-02-08T17:51:51.152Z,22.80
2024-02-08T17:54:53.391Z,23.05
2024-02-08T17:57:43.381Z,23.19
2024-02-08T18:00:31.140Z,23.21
2024-02-08T18:03:27.004Z,23.28
2024-02-08T18:06:18.256Z,23.60
2024-02-08T18:09:06.268Z,23.84
2024-02-08T18:11:54.071Z,23.60
2024-02-08T18:14:45.275Z,23.60
2024-02-08T18:17:35.676Z,23.94
2024-02-08T18:20:23.699Z,23.80
2024-02-08T18:23:11.346Z,23.75
2024-02-08T18:25:58.993Z,23.57
2024-02-08T18:28:47.029Z,23.76
2024-02-08T18:31:36.203Z,23.49
2024-02-08T18:34:24.315Z,23.34
2024-02-08T18:37:13.108Z,23.31
2024-02-08T18:40:00.992Z,23.50
2024-02-08T18:42:50.489Z,23.30
2024-02-08T18:45:38.941Z,23.58
2024-02-08T18:48:30.236Z,23.49
2024-02-08T18:51:17.981Z,23.67
2024-02-08T18:54:12.751Z,23.66
2024-02-08T18:57:04.755Z,23.58
2024-02-08T18:59:52.831Z,23.15
2024-02-08T19:02:40.887Z,23.52
2024-02-08T19:05:29.280Z,23.60
2024-02-08T19:08:20.000Z,23.22
2024-02-08T19:11:08.621Z,23.13
2024-02-08T19:13:58.283Z,23.59
2024-02-08T19:16:46.126Z,23.48
2024-02-08T19:19:35.527Z,23.34
2024-02-08T19:22:24.820Z,23.57
2024-02-08T19:25:15.496Z,23.91
2024-02-08T19:28:07.866Z,23.61
2024-02-08T19:30:57.176Z,23.93
2024-02-08T19:36:38.525Z,23.37
2024-02-08T19:39:29.179Z,23.76
2024-02-08T19:42:20.973Z,23.94
2024-02-08T19:45:24.348Z,23.80
2024-02-08T19:48:19.243Z,23.75
2024-02-08T19:51:10.401Z,23.52
2024-02-08T19:54:00.497Z,23.66
2024-02-08T19:56:49.206Z,23.29
2024-02-08T19:59:40.860Z,23.78
2024-02-08T20:02:29.287Z,23.41
2024-02-08T20:05:23.664Z,23.45
2024-02-08T20:08:12.163Z,23.68
2024-02-08T20:11:00.125Z,23.40
2024-02-08T20:13:48.882Z,23.60
2024-02-08T20:16:39.183Z,23.67
2024-02-08T20:19:28.450Z,23.90
2024-02-08T20:22:19.248Z,23.68
2024-02-08T20:25:07.118Z,23.55
2024-02-08T20:27:55.423Z,23.23
2024-02-08T20:30:50.301Z,23.41
2024-02-08T20:33:38.920Z,23.61
2024-02-08T20:36:26.747Z,23.44
2024-02-08T20:39:20.262Z,23.94
2024-02-08T20:42:13.684Z,23.20
2024-02-08T20:45:01.619Z,23.36
2024-02-08T20:47:50.365Z,23.61
2024-02-08T20:50:41.718Z,23.48
2024-02-08T20:53:31.649Z,23.91
2024-02-08T20:56:27.243Z,23.79
2024-02-08T20:59:15.744Z,23.57
2024-02-08T21:02:04.252Z,23.70
2024-02-08T21:04:52.642Z,23.24
2024-02-08T21:07:41.112Z,23.62
2024-02-08T21:10:29.828Z,23.27
2024-02-08T21:13:18.689Z,23.63
2024-02-08T21:16:06.970Z,23.46
2024-02-08T21:18:54.699Z,23.76
2024-02-08T21:21:42.777Z,23.50
2024-02-08T21:24:31.340Z,23.52
2024-02-08T21:27:21.529Z,23.51
2024-02-08T21:30:12.721Z,23.77
2024-02-08T21:33:00.441Z,23.58
2024-02-08T21:35:48.194Z,23.35
2024-02-08T21:38:36.166Z,23.65
2024-02-08T21:41:23.911Z,23.29
2024-02-08T21:44:11.645Z,23.66
2024-02-08T21:46:59.844Z,23.58
2024-02-08T21:49:48.225Z,23.55
2024-02-08T21:52:39.139Z,23.48
2024-02-08T21:55:26.858Z,23.37
2024-02-08T21:58:14.802Z,23.41
2024-02-08T22:04:09.320Z,23.41
2024-02-08T22:06:57.403Z,23.45
2024-02-08T22:09:52.619Z,23.22
2024-02-08T22:12:46.639Z,23.35
2024-02-08T22:15:34.975Z,23.22
2024-02-08T22:18:25.474Z,23.23
2024-02-08T22:21:19.427Z,23.04
2024-02-08T22:24:09.528Z,23.16
2024-02-08T22:26:59.196Z,23.00
2024-02-08T22:29:46.987Z,22.72
2024-02-08T22:32:37.050Z,22.78
2024-02-08T22:35:24.855Z,22.92
2024-02-08T22:38:13.607Z,23.12
2024-02-08T22:41:01.713Z,23.43
2024-02-08T22:43:49.446Z,23.06
2024-02-08T22:46:37.623Z,23.04
2024-02-08T22:49:26.629Z,23.07
2024-02-08T22:52:14.790Z,23.15
2024-02-08T22:55:04.628Z,23.37
2024-02-08T22:57:56.962Z,23.41
2024-02-08T23:00:50.947Z,23.25
2024-02-08T23:03:38.704Z,23.32
2024-02-08T23:06:32.032Z,23.01
2024-02-08T23:09:21.300Z,22.76
2024-02-08T23:12:12.016Z,22.96
2024-02-08T23:14:59.736Z,23.09
2024-02-08T23:18:05.911Z,23.49
2024-02-08T23:20:55.035Z,23.24
2024-02-08T23:23:42.942Z,23.35
2024-02-08T23:26:30.704Z,23.73
2024-02-08T23:29:19.606Z,23.01
2024-02-08T23:32:11.147Z,23.56
2024-02-08T23:34:59.052Z,23.16
2024-02-08T23:37:47.624Z,23.21
2024-02-08T23:40:35.482Z,23.42
2024-02-08T23:43:23.330Z,23.60
2024-02-08T23:46:10.990Z,23.69
2024-02-08T23:48:59.092Z,23.44
2024-02-08T23:51:48.803Z,23.81
2024-02-08T23:54:40.756Z,23.50
2024-02-08T23:57:30.426Z,23.59
